Time;durP1;ratioP1;P1;durP2;ratioP2;P2;SDS_P1;SDS_P2;PMS_P1;PMS_P2;Temp;Humidity;BMP_temperature;BMP_pressure;BME280_temperature;BME280_humidity;BME280_pressure;Samples;Min_cycle;Max_cycle;Signal;HPM_P1;HPM_P2
2024/04/23 00:02:00;;;;;;;44.30;29.90;;;;;;;3.64;57.83;101092.30;111309;1252;22044;-68
2024/04/23 00:04:29;;;;;;;44.90;32.10;;;;;;;3.65;57.94;101093.65;111597;1252;21951;-68
2024/04/23 00:07:00;;;;;;;44.90;33.30;;;;;;;3.68;57.89;101089.06;111487;1252;21949;-68
2024/04/23 00:09:29;;;;;;;44.10;33.20;;;;;;;3.70;57.88;101091.25;111539;1252;23694;-68
2024/04/23 00:11:58;;;;;;;44.20;32.60;;;;;;;3.73;58.13;101091.52;111532;1252;23683;-68
2024/04/23 00:14:28;;;;;;;44.00;31.50;;;;;;;3.75;57.87;101095.96;111501;1252;21959;-68
2024/04/23 00:17:00;;;;;;;48.30;33.40;;;;;;;3.73;57.69;101095.84;111329;1252;22845;-67
2024/04/23 00:19:28;;;;;;;40.80;32.20;;;;;;;3.70;57.70;101093.50;111581;1252;22181;-67
2024/04/23 00:21:58;;;;;;;43.20;30.90;;;;;;;3.66;57.79;101089.10;111309;1252;21949;-67
2024/04/23 00:24:26;;;;;;;42.30;32.50;;;;;;;3.65;57.85;101086.18;111286;1252;21966;-68
2024/04/23 00:27:00;;;;;;;37.90;29.70;;;;;;;3.63;58.03;101085.89;111276;1252;21955;-67
2024/04/23 00:29:29;;;;;;;39.50;29.10;;;;;;;3.60;58.13;101077.09;111257;1249;22016;-68
2024/04/23 00:31:58;;;;;;;36.70;27.90;;;;;;;3.59;58.29;101071.21;111248;1248;23697;-68
2024/04/23 00:34:28;;;;;;;36.90;28.00;;;;;;;3.61;58.39;101069.08;111229;1252;21965;-67
2024/04/23 00:36:58;;;;;;;35.20;26.50;;;;;;;3.62;58.35;101068.84;111611;1252;22051;-67
2024/04/23 00:39:27;;;;;;;35.20;26.40;;;;;;;3.64;58.39;101067.92;111553;1241;22664;-67
2024/04/23 00:41:58;;;;;;;30.90;24.40;;;;;;;3.67;58.31;101066.98;111262;1252;21996;-68
2024/04/23 00:44:27;;;;;;;31.10;25.00;;;;;;;3.68;58.28;101071.96;111367;1252;21997;-69
2024/04/23 00:46:56;;;;;;;40.40;30.90;;;;;;;3.68;58.03;101071.10;111335;1252;21962;-69
2024/04/23 00:49:25;;;;;;;48.40;37.60;;;;;;;3.64;58.35;101067.38;111642;1252;23697;-68
2024/04/23 00:51:54;;;;;;;59.20;41.50;;;;;;;3.60;58.70;101063.88;111190;1252;22147;-68
2024/04/23 00:54:25;;;;;;;59.30;43.70;;;;;;;3.54;59.29;101062.13;111113;1252;197207;-69
2024/04/23 00:56:56;;;;;;;63.70;46.00;;;;;;;3.49;59.71;101061.22;111241;1248;21970;-68
2024/04/23 00:59:26;;;;;;;58.10;42.90;;;;;;;3.46;60.13;101057.13;111330;1252;21955;-68
2024/04/23 01:01:56;;;;;;;64.50;47.20;;;;;;;3.44;60.48;101060.33;111295;1252;22825;-69
2024/04/23 01:04:25;;;;;;;53.70;42.10;;;;;;;3.40;60.65;101058.88;111431;1252;23570;-69
2024/04/23 01:06:54;;;;;;;55.70;42.60;;;;;;;3.40;60.81;101056.79;111478;1252;21961;-68
2024/04/23 01:09:23;;;;;;;60.10;43.50;;;;;;;3.42;61.08;101052.71;111434;1252;21948;-68
2024/04/23 01:11:52;;;;;;;61.60;46.10;;;;;;;3.46;61.14;101054.86;111131;1252;21976;-69
2024/04/23 01:14:22;;;;;;;63.30;46.10;;;;;;;3.47;61.38;101055.51;111296;1252;22083;-68
2024/04/23 01:16:51;;;;;;;66.30;43.50;;;;;;;3.48;61.72;101049.23;111149;1252;21955;-68
2024/04/23 01:19:48;;;;;;;59.80;43.40;;;;;;;3.48;61.77;101046.11;111319;1252;21953;-69
2024/04/23 01:22:24;;;;;;;61.40;44.90;;;;;;;3.44;61.78;101050.05;111205;1250;22794;-68
2024/04/23 01:25:17;;;;;;;70.30;46.10;;;;;;;3.41;61.76;101049.63;111488;1252;22782;-68
2024/04/23 01:27:47;;;;;;;54.70;38.20;;;;;;;3.37;62.13;101049.38;111522;1252;22032;-69
2024/04/23 01:30:21;;;;;;;56.70;41.20;;;;;;;3.31;61.87;101049.22;111572;1252;21954;-68
2024/04/23 01:32:52;;;;;;;63.70;45.00;;;;;;;3.24;61.98;101052.38;111510;1252;21953;-68
2024/04/23 01:35:23;;;;;;;59.50;43.80;;;;;;;3.19;62.41;101057.38;111397;1252;21960;-68
2024/04/23 01:37:54;;;;;;;61.10;42.50;;;;;;;3.18;62.56;101058.30;111301;1252;22683;-68
2024/04/23 01:40:24;;;;;;;56.20;41.40;;;;;;;3.16;62.86;101057.13;111246;1252;22107;-70
2024/04/23 01:42:54;;;;;;;59.30;41.10;;;;;;;3.18;62.96;101056.19;111387;1252;21953;-68
2024/04/23 01:45:24;;;;;;;59.20;42.60;;;;;;;3.24;62.75;101055.34;111045;1252;21961;-69
2024/04/23 01:47:53;;;;;;;58.90;43.20;;;;;;;3.30;62.71;101057.78;111133;1252;23470;-67
2024/04/23 01:50:22;;;;;;;55.10;40.20;;;;;;;3.33;62.76;101059.59;111290;1241;23003;-68
2024/04/23 01:52:51;;;;;;;57.10;40.30;;;;;;;3.29;62.55;101061.11;111131;1252;21960;-67
2024/04/23 01:55:20;;;;;;;50.50;38.70;;;;;;;3.22;62.70;101060.77;111296;1252;22424;-68
2024/04/23 01:57:49;;;;;;;53.00;39.90;;;;;;;3.20;62.85;101065.54;111299;1252;21985;-69
2024/04/23 02:00:21;;;;;;;50.70;40.90;;;;;;;3.20;62.90;101063.61;111531;1252;22037;-68
2024/04/23 02:02:51;;;;;;;51.70;38.90;;;;;;;3.21;62.95;101063.95;111224;1252;21953;-67
2024/04/23 02:05:22;;;;;;;47.00;37.40;;;;;;;3.19;62.79;101061.55;111137;1252;21993;-67
2024/04/23 02:07:51;;;;;;;49.90;38.10;;;;;;;3.19;62.82;101061.21;111120;1252;21949;-68
2024/04/23 02:10:21;;;;;;;43.60;32.90;;;;;;;3.18;62.88;101056.73;111497;1252;22909;-68
2024/04/23 02:12:49;;;;;;;39.60;30.50;;;;;;;3.17;62.81;101050.50;111200;1252;23808;-67
2024/04/23 02:15:18;;;;;;;37.40;27.50;;;;;;;3.17;62.61;101049.25;111047;1252;22031;-68
2024/04/23 02:17:47;;;;;;;34.40;26.30;;;;;;;3.19;62.46;101044.17;111269;1252;21958;-67
2024/04/23 02:20:17;;;;;;;36.70;27.60;;;;;;;3.23;62.44;101042.30;111354;1252;22031;-69
2024/04/23 02:22:46;;;;;;;35.40;26.30;;;;;;;3.28;62.24;101039.88;111552;1252;22063;-67
2024/04/23 02:25:15;;;;;;;40.20;30.70;;;;;;;3.31;62.06;101037.53;111487;1252;23659;-68
2024/04/23 02:27:43;;;;;;;47.80;34.90;;;;;;;3.34;62.30;101036.95;111221;1252;22236;-67
2024/04/23 02:30:12;;;;;;;45.00;34.90;;;;;;;3.34;62.41;101041.11;111187;1251;22043;-69
2024/04/23 02:32:41;;;;;;;42.90;34.30;;;;;;;3.32;62.57;101044.83;111293;1252;21955;-68
2024/04/23 02:35:10;;;;;;;44.40;34.30;;;;;;;3.27;62.71;101040.63;111210;1252;21953;-68
2024/04/23 02:37:39;;;;;;;44.80;33.00;;;;;;;3.21;62.97;101035.58;111239;1252;21953;-68
2024/04/23 02:40:09;;;;;;;42.80;31.00;;;;;;;3.16;63.21;101035.55;111334;1252;21973;-67
2024/04/23 02:42:37;;;;;;;42.20;32.10;;;;;;;3.16;63.33;101035.02;111539;1252;22037;-68
2024/04/23 02:45:07;;;;;;;42.40;31.40;;;;;;;3.18;63.36;101035.13;111197;1251;21953;-67
2024/04/23 02:47:35;;;;;;;40.70;31.40;;;;;;;3.17;63.41;101036.55;111370;1252;21967;-68
2024/04/23 02:50:05;;;;;;;46.70;33.70;;;;;;;3.13;63.54;101032.48;111257;1252;21958;-68
2024/04/23 02:52:34;;;;;;;41.90;29.20;;;;;;;3.11;63.58;101032.39;111532;1240;23057;-68
2024/04/23 02:55:06;;;;;;;44.00;31.80;;;;;;;3.09;63.60;101033.48;111506;1252;23675;-68
2024/04/23 02:57:35;;;;;;;41.90;32.10;;;;;;;3.06;63.71;101034.09;111199;1252;23768;-68
2024/04/23 03:00:06;;;;;;;38.20;29.60;;;;;;;3.02;63.71;101039.25;111512;1252;21951;-68
2024/04/23 03:02:35;;;;;;;44.80;32.10;;;;;;;2.93;64.06;101043.84;111595;1252;23556;-68
2024/04/23 03:05:04;;;;;;;42.00;31.20;;;;;;;2.87;64.18;101042.10;111202;1252;21941;-67
2024/04/23 03:07:33;;;;;;;40.40;31.30;;;;;;;2.82;64.19;101041.17;111219;1252;21942;-70
2024/04/23 03:10:02;;;;;;;38.50;29.40;;;;;;;2.73;64.56;101041.45;111277;1252;21955;-68
2024/04/23 03:12:31;;;;;;;43.90;30.50;;;;;;;2.72;64.68;101038.50;111216;1252;21954;-68
2024/04/23 03:15:00;;;;;;;40.30;30.90;;;;;;;2.71;64.85;101040.09;111491;1252;23683;-68
2024/04/23 03:17:29;;;;;;;44.40;30.30;;;;;;;2.74;64.96;101041.92;111304;1252;22926;-68
2024/04/23 03:19:58;;;;;;;40.40;30.10;;;;;;;2.75;64.64;101044.86;111517;1252;21952;-68
2024/04/23 03:22:27;;;;;;;37.90;28.40;;;;;;;2.68;65.08;101047.13;111483;1252;21939;-68
2024/04/23 03:24:55;;;;;;;35.90;27.80;;;;;;;2.64;65.25;101042.55;111182;1252;21950;-68
2024/04/23 03:27:24;;;;;;;34.70;28.50;;;;;;;2.64;65.31;101044.78;111292;1252;22037;-68
2024/04/23 03:29:53;;;;;;;41.90;30.00;;;;;;;2.63;65.30;101041.51;111234;1252;23813;-68
2024/04/23 03:32:22;;;;;;;41.30;30.80;;;;;;;2.62;65.41;101041.04;111362;1252;21958;-67
2024/04/23 03:34:51;;;;;;;38.40;28.00;;;;;;;2.63;65.48;101039.08;111311;1252;24300;-68
2024/04/23 03:37:20;;;;;;;36.50;29.30;;;;;;;2.56;65.65;101035.11;111328;1252;21953;-68
2024/04/23 03:39:49;;;;;;;36.70;29.40;;;;;;;2.51;65.63;101031.40;111392;1252;22032;-68
2024/04/23 03:42:17;;;;;;;37.10;29.80;;;;;;;2.50;65.61;101033.52;111530;1252;21985;-68
2024/04/23 03:44:46;;;;;;;37.60;29.30;;;;;;;2.49;65.61;101031.61;111541;1252;21962;-68
2024/04/23 03:47:16;;;;;;;34.00;28.60;;;;;;;2.50;65.62;101030.89;111583;1252;21950;-68
2024/04/23 03:49:45;;;;;;;37.70;28.70;;;;;;;2.49;65.57;101031.44;111191;1252;22937;-68
2024/04/23 03:52:15;;;;;;;29.50;25.90;;;;;;;2.44;65.64;101030.35;111536;1252;21968;-68
2024/04/23 03:54:44;;;;;;;37.00;29.90;;;;;;;2.39;65.77;101028.75;111513;1252;21964;-68
2024/04/23 03:57:13;;;;;;;34.40;28.80;;;;;;;2.36;65.93;101029.18;111256;1252;21954;-67
2024/04/23 03:59:42;;;;;;;33.40;27.60;;;;;;;2.37;65.85;101023.77;111303;1252;21956;-69
2024/04/23 04:07:45;;;;;;;34.90;28.40;;;;;;;2.40;65.84;101018.84;111287;1252;21948;-68
2024/04/23 04:10:14;;;;;;;31.10;27.20;;;;;;;2.48;65.73;101014.97;111600;1252;21961;-68
2024/04/23 04:12:43;;;;;;;32.60;26.30;;;;;;;2.55;65.62;101018.42;111219;1252;21946;-70
2024/04/23 04:15:12;;;;;;;30.90;24.60;;;;;;;2.61;65.45;101018.80;111663;1252;23580;-70
2024/04/23 04:17:41;;;;;;;26.50;23.00;;;;;;;2.64;65.32;101019.58;111515;1252;21948;-67
2024/04/23 04:20:10;;;;;;;29.90;24.70;;;;;;;2.69;65.14;101019.96;111421;1252;21955;-68
2024/04/23 04:22:39;;;;;;;31.90;26.40;;;;;;;2.76;64.97;101021.88;111504;1252;21967;-68
2024/04/23 04:25:08;;;;;;;31.10;24.90;;;;;;;2.81;64.84;101014.27;111275;1252;21953;-68
2024/04/23 04:27:37;;;;;;;28.60;22.60;;;;;;;2.84;64.40;101012.45;110541;1260;21964;-68
2024/04/23 04:30:09;;;;;;;25.00;21.50;;;;;;;2.87;64.19;101011.66;110478;1260;21983;-67
2024/04/23 04:32:37;;;;;;;26.20;21.60;;;;;;;2.92;64.07;101009.42;110794;1260;22939;-69
2024/04/23 04:35:06;;;;;;;29.00;20.50;;;;;;;2.98;64.04;101014.47;110728;1260;22429;-68
2024/04/23 04:37:35;;;;;;;27.10;19.40;;;;;;;3.05;63.72;101013.77;110669;1260;21963;-69
2024/04/23 04:40:04;;;;;;;23.10;18.90;;;;;;;3.12;63.36;101013.06;110631;1260;22197;-67
2024/04/23 04:42:33;;;;;;;25.80;18.70;;;;;;;3.14;62.89;101012.98;110687;1260;21976;-68
2024/04/23 04:45:01;;;;;;;24.70;18.30;;;;;;;3.14;62.67;101012.47;110395;1252;21962;-68
2024/04/23 04:47:31;;;;;;;29.80;21.90;;;;;;;3.16;62.29;101014.14;111304;1252;22024;-68
2024/04/23 04:50:00;;;;;;;28.00;22.90;;;;;;;3.14;62.65;101011.76;111315;1252;23233;-69
2024/04/23 04:52:29;;;;;;;29.10;23.30;;;;;;;3.18;62.70;101007.64;111614;1252;21943;-68
2024/04/23 04:54:58;;;;;;;30.10;22.50;;;;;;;3.22;62.82;101007.01;111511;1252;21953;-69
2024/04/23 04:57:26;;;;;;;27.10;18.10;;;;;;;3.29;62.93;101007.34;111517;1252;22771;-68
2024/04/23 04:59:55;;;;;;;24.40;19.00;;;;;;;3.37;62.55;101004.31;111494;1252;21953;-69
2024/04/23 05:02:24;;;;;;;32.10;23.30;;;;;;;3.44;62.42;101004.27;111543;1252;21952;-69
2024/04/23 05:04:56;;;;;;;28.80;22.30;;;;;;;3.49;62.34;101002.36;111236;1252;21958;-67
2024/04/23 05:07:25;;;;;;;;;;;;;;;3.55;62.24;100997.50;111516;1252;21932;-69
2024/04/23 05:09:53;;;;;;;31.90;19.50;;;;;;;3.54;61.81;100998.23;111548;1252;22183;-69
2024/04/23 05:12:22;;;;;;;27.00;19.00;;;;;;;3.58;61.46;100997.74;111174;1252;22039;-69
2024/04/23 05:14:51;;;;;;;28.50;22.40;;;;;;;3.64;61.27;100997.91;111291;1252;21952;-69
2024/04/23 05:17:21;;;;;;;29.50;22.30;;;;;;;3.72;61.20;101003.76;111313;1252;21951;-68
2024/04/23 05:19:50;;;;;;;30.60;18.10;;;;;;;3.79;60.75;101004.73;111274;1252;21980;-68
2024/04/23 05:22:19;;;;;;;24.60;20.20;;;;;;;3.85;60.54;101003.02;111310;1251;21950;-68
2024/04/23 05:24:48;;;;;;;26.90;20.60;;;;;;;3.89;60.22;101002.89;111264;1239;22733;-69
2024/04/23 05:27:16;;;;;;;28.20;20.10;;;;;;;3.94;60.16;101003.76;111542;1252;21953;-69
2024/04/23 05:29:51;;;;;;;26.10;18.70;;;;;;;3.98;59.93;100999.61;111526;1251;21964;-68
2024/04/23 05:35:10;;;;;;;28.30;20.00;;;;;;;4.12;59.84;100992.02;111582;1252;21950;-68
2024/04/23 05:37:39;;;;;;;24.70;19.40;;;;;;;4.15;59.66;100991.39;111353;1252;21964;-67
2024/04/23 05:40:09;;;;;;;25.90;22.50;;;;;;;4.24;59.73;100995.80;111252;1252;23689;-66
2024/04/23 05:42:37;;;;;;;28.90;22.80;;;;;;;4.40;59.19;100998.21;111327;1252;23705;-67
2024/04/23 05:45:06;;;;;;;31.80;24.50;;;;;;;4.65;59.05;100996.81;111252;1252;21954;-67
2024/04/23 05:48:32;;;;;;;29.20;23.40;;;;;;;4.98;58.70;101002.80;111136;1252;21956;-68
2024/04/23 05:52:16;;;;;;;34.00;23.80;;;;;;;5.42;57.30;101000.27;111206;1252;22039;-68
2024/04/23 05:55:51;;;;;;;25.60;19.40;;;;;;;5.79;56.56;101005.50;111474;1252;22726;-68
2024/04/23 05:58:20;;;;;;;25.90;20.70;;;;;;;6.00;55.31;101006.23;110517;1258;21959;-67
2024/04/23 06:00:49;;;;;;;22.30;17.70;;;;;;;6.30;54.73;101004.86;110821;1258;21974;-69
2024/04/23 06:03:18;;;;;;;25.00;19.70;;;;;;;6.64;53.48;101002.35;111065;1258;21953;-68
2024/04/23 06:05:47;;;;;;;19.00;16.80;;;;;;;6.95;53.29;101005.14;110717;1258;21968;-66
2024/04/23 06:08:16;;;;;;;25.40;17.20;;;;;;;7.30;51.94;101006.37;110978;1258;21953;-68
2024/04/23 06:10:45;;;;;;;21.40;17.70;;;;;;;7.64;50.55;101006.88;110831;1258;23016;-67
2024/04/23 06:13:15;;;;;;;21.10;17.80;;;;;;;7.99;49.87;101012.41;110861;1258;22128;-67
2024/04/23 06:15:44;;;;;;;30.00;19.50;;;;;;;8.41;49.62;101018.22;110788;1258;21992;-67
2024/04/23 06:18:17;;;;;;;19.30;16.10;;;;;;;8.92;48.55;101016.99;110754;1258;21933;-67
2024/04/23 06:20:50;;;;;;;19.00;14.60;;;;;;;9.44;46.85;101021.46;110583;1258;22093;-68
2024/04/23 06:23:27;;;;;;;21.50;13.80;;;;;;;9.72;46.08;101019.04;110499;1258;23396;-67
2024/04/23 06:25:55;;;;;;;14.60;11.00;;;;;;;9.86;45.28;101017.38;110850;1258;21968;-67
2024/04/23 06:28:24;;;;;;;15.40;11.50;;;;;;;10.04;44.93;101018.97;110888;1258;21961;-68
2024/04/23 06:30:53;;;;;;;14.70;9.40;;;;;;;10.19;44.37;101020.91;111025;1255;22130;-68
2024/04/23 06:33:22;;;;;;;10.90;9.40;;;;;;;10.25;44.16;101015.81;111385;1252;23740;-69
2024/04/23 06:35:53;;;;;;;12.30;8.90;;;;;;;10.18;43.38;101020.29;111239;1252;23676;-68
2024/04/23 06:38:22;;;;;;;9.20;8.00;;;;;;;10.25;43.34;101019.37;111232;1252;21963;-68
2024/04/23 06:40:51;;;;;;;9.90;8.50;;;;;;;10.47;42.24;101020.39;111275;1250;21952;-69
2024/04/23 06:43:20;;;;;;;14.80;10.80;;;;;;;10.72;43.01;101019.24;111259;1247;21966;-68
2024/04/23 06:45:53;;;;;;;10.70;8.30;;;;;;;10.84;42.31;101020.08;111592;1252;21952;-70
2024/04/23 06:48:22;;;;;;;9.80;8.40;;;;;;;10.93;42.27;101020.58;110855;1252;21953;-67
2024/04/23 06:50:51;;;;;;;14.10;10.40;;;;;;;11.08;41.67;101019.89;111490;1252;22420;-67
2024/04/23 06:53:19;;;;;;;12.10;9.60;;;;;;;11.07;41.47;101019.63;111257;1252;23687;-69
2024/04/23 06:55:53;;;;;;;12.70;9.40;;;;;;;10.99;40.92;101022.36;111045;1252;21962;-67
2024/04/23 06:58:22;;;;;;;12.70;9.10;;;;;;;10.81;39.93;101020.80;111059;1252;24090;-74
2024/04/23 07:00:57;;;;;;;7.90;6.80;;;;;;;10.75;40.93;101020.64;111619;1252;24174;-69
2024/04/23 07:03:26;;;;;;;9.90;7.70;;;;;;;10.94;40.10;101023.20;110999;1252;22245;-67
2024/04/23 07:05:55;;;;;;;8.70;7.70;;;;;;;11.18;39.92;101018.00;111307;1252;21981;-70
2024/04/23 07:08:24;;;;;;;10.40;7.40;;;;;;;11.42;39.56;101014.77;111389;1252;21991;-68
2024/04/23 07:10:56;;;;;;;8.90;7.90;;;;;;;11.63;39.16;101012.89;111253;1252;21951;-67
2024/04/23 07:13:25;;;;;;;7.30;6.60;;;;;;;11.56;38.10;101016.00;111556;1252;22007;-66
2024/04/23 07:15:54;;;;;;;8.30;6.70;;;;;;;11.26;37.23;101009.94;111319;1252;21988;-68
2024/04/23 07:18:23;;;;;;;6.70;6.00;;;;;;;11.23;38.02;101006.80;111272;1252;25064;-68
2024/04/23 07:20:52;;;;;;;7.80;6.90;;;;;;;11.33;36.71;101007.54;111374;1252;22874;-68
2024/04/23 07:23:21;;;;;;;8.20;7.10;;;;;;;11.44;36.81;101008.44;111331;1252;21969;-68
2024/04/23 07:25:51;;;;;;;11.70;8.50;;;;;;;11.54;36.64;101002.02;111522;1252;21959;-66
2024/04/23 07:28:20;;;;;;;8.20;7.40;;;;;;;11.52;36.50;101002.14;111211;1252;21968;-67
2024/04/23 07:30:50;;;;;;;9.80;7.10;;;;;;;11.39;36.07;100997.85;111296;1252;22929;-70
2024/04/23 07:33:19;;;;;;;12.10;8.30;;;;;;;11.29;36.69;100995.65;111250;1252;21935;-67
2024/04/23 07:35:48;;;;;;;9.70;7.70;;;;;;;11.29;37.04;100992.33;111611;1252;21971;-68
2024/04/23 07:38:17;;;;;;;11.10;7.70;;;;;;;11.27;36.93;100995.45;111292;1252;21964;-70
2024/04/23 07:40:47;;;;;;;6.90;5.40;;;;;;;11.04;35.82;100998.25;111301;1252;23569;-70
2024/04/23 07:43:16;;;;;;;6.00;5.50;;;;;;;10.60;35.13;100999.73;111303;1252;21954;-68
2024/04/23 07:45:45;;;;;;;5.70;5.10;;;;;;;10.46;36.07;100994.34;111312;1252;21957;-67
2024/04/23 07:48:14;;;;;;;6.00;5.40;;;;;;;10.69;36.47;100989.27;110948;1252;22047;-68
2024/04/23 07:50:44;;;;;;;8.40;7.50;;;;;;;11.10;35.49;100993.47;111275;1252;21953;-69
2024/04/23 07:53:13;;;;;;;7.10;6.40;;;;;;;11.55;35.37;100989.21;111291;1252;21948;-65
2024/04/23 07:55:43;;;;;;;14.90;6.80;;;;;;;12.23;34.88;100987.83;111299;1252;22051;-70
2024/04/23 07:58:12;;;;;;;5.50;4.00;;;;;;;12.86;33.17;100986.69;111339;1252;21952;-68
2024/04/23 08:00:41;;;;;;;6.10;3.90;;;;;;;13.30;31.31;100977.63;111423;1252;21983;-71
2024/04/23 08:03:10;;;;;;;4.00;3.50;;;;;;;13.74;30.57;100976.72;111328;1252;21991;-66
2024/04/23 08:05:39;;;;;;;5.60;3.90;;;;;;;13.97;30.35;100976.48;111337;1252;23012;-69
2024/04/23 08:08:08;;;;;;;16.50;6.30;;;;;;;14.05;30.32;100974.48;111229;1252;21983;-67
2024/04/23 08:10:37;;;;;;;7.90;6.50;;;;;;;14.16;29.50;100967.40;111313;1252;24309;-70
2024/04/23 08:13:06;;;;;;;7.00;4.60;;;;;;;14.07;29.31;100966.70;111287;1252;21950;-67
2024/04/23 08:15:35;;;;;;;4.00;3.50;;;;;;;13.80;28.90;100970.81;111222;1252;21995;-67
2024/04/23 08:18:04;;;;;;;4.90;3.60;;;;;;;13.46;29.39;100968.70;111039;1252;22024;-68
2024/04/23 08:20:33;;;;;;;5.80;4.10;;;;;;;12.98;29.59;100970.11;111297;1252;21950;-68
2024/04/23 08:23:02;;;;;;;6.40;5.50;;;;;;;12.59;30.38;100965.27;111557;1252;23462;-68
2024/04/23 08:25:31;;;;;;;10.20;9.20;;;;;;;12.36;30.73;100961.34;111554;1252;21960;-67
2024/04/23 08:28:00;;;;;;;10.20;6.90;;;;;;;12.13;30.70;100959.75;110923;1252;22724;-68
2024/04/23 08:30:29;;;;;;;16.50;8.00;;;;;;;11.86;30.83;100955.48;111423;1252;21953;-67
2024/04/23 08:32:58;;;;;;;15.10;11.00;;;;;;;11.77;31.18;100951.35;111273;1252;21955;-68
2024/04/23 08:35:27;;;;;;;7.00;4.50;;;;;;;11.68;31.56;100955.59;111366;1252;21952;-70
2024/04/23 08:37:57;;;;;;;6.70;4.50;;;;;;;11.49;30.75;100953.11;111325;1252;21940;-69
2024/04/23 08:40:26;;;;;;;12.30;7.20;;;;;;;11.25;30.96;100952.73;111384;1252;23615;-67
2024/04/23 08:43:03;;;;;;;6.90;3.90;;;;;;;11.06;30.76;100943.73;111350;1252;22044;-68
2024/04/23 08:45:35;;;;;;;6.40;5.10;;;;;;;10.94;30.76;100943.77;111017;1245;22999;-69
2024/04/23 08:48:05;;;;;;;30.30;10.90;;;;;;;10.75;30.26;100941.20;111077;1252;23053;-68
2024/04/23 08:50:35;;;;;;;19.20;16.60;;;;;;;10.58;30.31;100936.77;111371;1248;21966;-68
2024/04/23 08:53:06;;;;;;;8.80;6.10;;;;;;;10.42;30.39;100937.02;111306;1250;22946;-67
2024/04/23 08:55:44;;;;;;;8.20;5.00;;;;;;;10.31;30.35;100937.72;111006;1252;24499;-67
2024/04/23 08:58:15;;;;;;;15.30;9.00;;;;;;;10.25;30.89;100935.45;111042;1252;21991;-70
2024/04/23 09:00:47;;;;;;;8.80;4.80;;;;;;;10.23;31.37;100938.02;111006;1252;23690;-67
2024/04/23 09:03:24;;;;;;;11.30;8.20;;;;;;;10.14;30.38;100934.98;110950;1252;21954;-67
2024/04/23 09:05:54;;;;;;;6.80;4.30;;;;;;;10.08;30.53;100934.13;110955;1252;23569;-67
2024/04/23 09:08:23;;;;;;;4.20;3.40;;;;;;;9.95;31.01;100932.38;110999;1252;21949;-67
2024/04/23 09:10:53;;;;;;;4.60;3.40;;;;;;;9.98;30.44;100933.63;111017;1251;22046;-66
2024/04/23 09:13:22;;;;;;;4.00;3.40;;;;;;;10.05;30.17;100929.74;111297;1252;22038;-69
2024/04/23 09:15:51;;;;;;;20.70;18.50;;;;;;;10.11;30.27;100933.77;111358;1252;23570;-66
2024/04/23 09:18:21;;;;;;;48.20;29.20;;;;;;;10.08;30.48;100932.19;111326;1252;21953;-67
2024/04/23 09:20:50;;;;;;;8.80;6.40;;;;;;;10.04;31.05;100929.78;111325;1252;21955;-67
2024/04/23 09:23:19;;;;;;;4.90;4.20;;;;;;;10.06;31.26;100929.48;111349;1252;21951;-66
2024/04/23 09:25:49;;;;;;;6.60;4.80;;;;;;;10.09;31.41;100928.43;111389;1252;21963;-66
2024/04/23 09:28:22;;;;;;;6.10;5.20;;;;;;;10.17;31.50;100932.90;111293;1252;21949;-66
2024/04/23 09:30:52;;;;;;;11.60;6.40;;;;;;;10.23;30.93;100933.61;111335;1252;21950;-66
2024/04/23 09:33:26;;;;;;;7.40;4.50;;;;;;;10.14;30.68;100929.71;111073;1252;21961;-65
2024/04/23 09:36:10;;;;;;;5.10;4.20;;;;;;;10.14;31.64;100922.67;111363;1252;21993;-62
2024/04/23 09:38:41;;;;;;;414.70;39.80;;;;;;;10.41;31.77;100917.92;111148;1252;22945;-75
2024/04/23 09:41:10;;;;;;;15.80;6.40;;;;;;;11.00;35.32;100912.86;111003;1252;21950;-63
2024/04/23 09:43:39;;;;;;;7.10;4.60;;;;;;;11.76;32.70;100909.72;111301;1252;21967;-67
2024/04/23 09:46:08;;;;;;;4.90;4.00;;;;;;;12.35;30.52;100903.13;110989;1252;22344;-67
2024/04/23 09:48:41;;;;;;;8.80;4.80;;;;;;;12.68;28.85;100899.97;111026;1251;21950;-68
2024/04/23 09:51:10;;;;;;;4.80;3.70;;;;;;;13.12;29.08;100894.36;111464;1251;24345;-68
2024/04/23 09:53:39;;;;;;;5.00;4.20;;;;;;;13.46;28.38;100896.52;111347;1251;21967;-68
2024/04/23 09:56:12;;;;;;;5.00;3.90;;;;;;;13.85;27.34;100894.13;111446;1251;21947;-68
2024/04/23 09:58:42;;;;;;;8.30;5.30;;;;;;;14.37;26.95;100885.41;110960;1251;21952;-67
2024/04/23 10:01:12;;;;;;;5.70;4.10;;;;;;;14.51;26.11;100888.94;111410;1251;21990;-68
2024/04/23 10:03:48;;;;;;;5.10;4.30;;;;;;;14.15;26.21;100884.27;111490;1251;21963;-68
2024/04/23 10:06:29;;;;;;;5.10;4.10;;;;;;;13.59;25.53;100884.61;111312;1251;21957;-67
2024/04/23 10:09:19;;;;;;;5.50;4.60;;;;;;;13.19;26.89;100877.27;111372;1251;23035;-67
2024/04/23 10:12:05;;;;;;;4.60;4.20;;;;;;;13.38;26.62;100874.65;111363;1245;23018;-67
2024/04/23 10:14:57;;;;;;;4.90;4.40;;;;;;;13.54;26.69;100872.42;110981;1251;21951;-67
2024/04/23 10:17:37;;;;;;;5.20;4.40;;;;;;;13.68;26.81;100868.52;111349;1251;21945;-67
2024/04/23 10:20:09;;;;;;;5.30;4.30;;;;;;;13.43;26.56;100863.88;111355;1251;21961;-67
2024/04/23 10:22:38;;;;;;;5.50;4.50;;;;;;;13.16;26.79;100857.85;111355;1251;22751;-67
2024/04/23 10:25:07;;;;;;;6.80;5.20;;;;;;;13.03;26.85;100851.00;111132;1251;22030;-67
2024/04/23 10:27:38;;;;;;;5.00;4.50;;;;;;;12.82;26.54;100853.01;111214;1251;21950;-67
2024/04/23 10:30:12;;;;;;;7.20;5.50;;;;;;;12.49;26.86;100847.95;111286;1242;21958;-67
2024/04/23 10:32:41;;;;;;;9.10;4.90;;;;;;;12.24;27.72;100843.84;111286;1251;21953;-68
2024/04/23 10:35:13;;;;;;;6.00;5.00;;;;;;;12.04;27.77;100840.45;110998;1251;22741;-68
2024/04/23 10:37:44;;;;;;;7.10;4.60;;;;;;;12.02;28.24;100831.83;110965;1251;22128;-67
2024/04/23 10:40:15;;;;;;;5.60;4.60;;;;;;;12.23;28.06;100828.77;111605;1242;21971;-69
2024/04/23 10:42:43;;;;;;;5.90;5.00;;;;;;;12.44;27.55;100817.59;111565;1251;22029;-68
2024/04/23 10:45:13;;;;;;;12.00;5.80;;;;;;;12.53;27.66;100810.45;110929;1258;21973;-69
2024/04/23 10:47:53;;;;;;;10.20;5.50;;;;;;;12.34;27.17;100814.91;110776;1258;25128;-70
2024/04/23 10:50:28;;;;;;;5.70;4.90;;;;;;;12.06;27.45;100814.54;110707;1258;21981;-69
2024/04/23 10:52:58;;;;;;;9.70;4.80;;;;;;;12.15;28.44;100805.67;111060;1258;23599;-66
2024/04/23 10:55:28;;;;;;;7.00;4.80;;;;;;;12.51;27.91;100796.95;110918;1258;22060;-68
2024/04/23 10:57:58;;;;;;;5.10;4.60;;;;;;;12.55;27.59;100800.23;110504;1258;21967;-67
2024/04/23 11:00:35;;;;;;;6.10;5.30;;;;;;;12.35;27.61;100801.95;111134;1258;22741;-67
2024/04/23 11:03:17;;;;;;;9.10;4.80;;;;;;;12.24;27.72;100803.26;111211;1251;21954;-67
2024/04/23 11:05:48;;;;;;;5.40;4.50;;;;;;;12.02;27.57;100797.55;111385;1251;23706;-70
2024/04/23 11:08:23;;;;;;;5.20;4.60;;;;;;;11.68;27.91;100792.09;111373;1251;22370;-69
2024/04/23 11:11:02;;;;;;;7.20;4.80;;;;;;;11.23;28.44;100790.65;111381;1251;23570;-66
2024/04/23 11:13:41;;;;;;;14.00;6.40;;;;;;;10.88;29.10;100782.02;111366;1251;21970;-69
2024/04/23 11:16:16;;;;;;;5.50;4.80;;;;;;;10.66;29.27;100776.75;111315;1251;23755;-69
2024/04/23 11:18:49;;;;;;;5.90;4.60;;;;;;;10.50;29.80;100771.77;111365;1251;21957;-67
2024/04/23 11:21:28;;;;;;;8.70;5.30;;;;;;;10.29;30.29;100763.05;111405;1251;22634;-69
2024/04/23 11:24:03;;;;;;;9.80;5.20;;;;;;;10.24;30.89;100763.70;111517;1239;23007;-70
2024/04/23 11:26:32;;;;;;;7.10;5.00;;;;;;;10.16;30.68;100758.56;111403;1251;22764;-68
2024/04/23 11:29:01;;;;;;;8.90;5.50;;;;;;;10.09;30.87;100753.70;111307;1251;21995;-68
2024/04/23 11:31:31;;;;;;;4.90;4.40;;;;;;;10.07;30.73;100752.98;111354;1245;21953;-67
2024/04/23 11:34:00;;;;;;;7.50;5.00;;;;;;;10.02;30.62;100746.02;111133;1251;23672;-69
2024/04/23 11:36:29;;;;;;;6.60;5.70;;;;;;;9.95;30.69;100748.73;111163;1251;23598;-68
2024/04/23 11:39:06;;;;;;;6.20;5.50;;;;;;;9.76;30.88;100746.42;111334;1251;22205;-67